Time,TemperatureF,DewpointF,PressureIn,WindDirection,WindDirectionDegrees,WindSpeedMPH,WindSpeedGustMPH,Humidity,HourlyPrecipIn,Conditions,Clouds,dailyrainin,SolarRadiationWatts/m^2,SoftwareType,DateUTC
2013-09-15 00:00:00,67.6,64.3,29.85,ENE,75,0.0,1.0,89,0.00,BKN,SCT,0.00,0.0,WeatherDisplay:10.37,2013-09-15 10:00:00,
2013-09-15 00:10:00,67.6,64.2,29.85,ENE,75,0.0,2.0,89,0.00,BKN,SCT,0.00,0.0,WeatherDisplay:10.37,2013-09-15 10:10:00,
2013-09-15 00:20:00,67.6,64.2,29.85,ESE,102,0.0,5.0,89,0.00,BKN,SCT,0.00,0.0,WeatherDisplay:10.37,2013-09-15 10:20:00,
2013-09-15 00:30:00,67.6,64.2,29.85,ESE,102,0.0,4.0,89,0.00,BKN,SCT,0.00,0.0,WeatherDisplay:10.37,2013-09-15 10:30:00,
2013-09-15 00:40:00,67.4,63.7,29.84,ESE,102,1.0,3.0,88,0.00,BKN,SCT,0.00,0.0,WeatherDisplay:10.37,2013-09-15 10:40:00,
2013-09-15 00:50:00,67.2,63.6,29.84,ESE,102,0.0,3.0,88,0.00,BKN,SCT,0.00,0.0,WeatherDisplay:10.37,2013-09-15 10:50:00,
2013-09-15 01:00:00,67.1,63.4,29.84,ESE,102,0.0,4.0,88,0.00,BKN,SCT,0.00,0.0,WeatherDisplay:10.37,2013-09-15 11:00:00,
2013-09-15 01:10:00,67.0,63.3,29.84,ESE,102,0.0,3.0,88,0.00,CLR,SCT,0.00,0.0,WeatherDisplay:10.37,2013-09-15 11:10:00,
2013-09-15 01:20:00,66.9,63.2,29.84,ESE,102,0.0,1.0,88,0.00,CLR,SCT,0.00,0.0,WeatherDisplay:10.37,2013-09-15 11:20:00,
2013-09-15 01:30:00,66.8,63.5,29.84,ESE,102,0.0,5.0,89,0.00,CLR,SCT,0.00,0.0,WeatherDisplay:10.37,2013-09-15 11:30:00,
2013-09-15 01:40:00,66.7,63.0,29.83,ESE,102,0.0,4.0,88,0.00,CLR,SCT,0.00,0.0,WeatherDisplay:10.37,2013-09-15 11:40:00,
2013-09-15 01:50:00,66.6,63.3,29.83,ESE,102,0.0,4.0,89,0.00,CLR,SCT,0.00,0.0,WeatherDisplay:10.37,2013-09-15 11:50:00,
2013-09-15 02:00:00,66.7,63.7,29.83,ESE,102,0.0,4.0,90,0.00,CLR,SCT,0.00,0.0,WeatherDisplay:10.37,2013-09-15 12:00:00,
2013-09-15 02:10:00,66.7,63.7,29.83,ESE,102,0.0,5.0,90,0.00,CLR,SCT,0.00,0.0,WeatherDisplay:10.37,2013-09-15 12:10:00,
2013-09-15 02:20:00,66.8,63.8,29.83,ESE,102,0.0,3.0,90,0.00,CLR,SCT,0.00,0.0,WeatherDisplay:10.37,2013-09-15 12:20:00,
2013-09-15 02:30:00,66.7,63.0,29.83,ESE,102,1.0,4.0,88,0.00,CLR,SCT,0.00,0.0,WeatherDisplay:10.37,2013-09-15 12:30:00,
2013-09-15 02:40:00,66.9,62.6,29.83,ESE,102,1.0,4.0,86,0.00,CLR,SCT,0.00,0.0,WeatherDisplay:10.37,2013-09-15 12:40:00,
2013-09-15 02:50:00,66.8,62.2,29.83,ESE,102,1.0,4.0,85,0.00,CLR,SCT,0.00,0.0,WeatherDisplay:10.37,2013-09-15 12:50:00,
2013-09-15 03:00:00,66.7,61.7,29.83,East,99,1.0,6.0,84,0.00,CLR,SCT,0.00,0.0,WeatherDisplay:10.37,2013-09-15 13:00:00,
2013-09-15 03:10:00,66.9,62.5,29.83,ESE,115,6.0,10.0,86,0.00,CLR,SCT,0.00,0.0,WeatherDisplay:10.37,2013-09-15 13:10:00,
2013-09-15 03:20:00,68.5,62.4,29.82,SE,126,1.0,10.0,81,0.00,CLR,SCT,0.00,0.0,WeatherDisplay:10.37,2013-09-15 13:20:00,
2013-09-15 03:30:00,68.8,62.0,29.82,East,101,1.0,10.0,79,0.00,CLR,SCT,0.00,0.0,WeatherDisplay:10.37,2013-09-15 13:30:00,
2013-09-15 03:40:00,68.9,62.1,29.82,ESE,103,2.0,7.0,79,0.00,CLR,SCT,0.00,0.0,WeatherDisplay:10.37,2013-09-15 13:40:00,
2013-09-15 03:50:00,69.1,62.0,29.82,ESE,102,2.0,7.0,78,0.00,CLR,SCT,0.00,0.0,WeatherDisplay:10.37,2013-09-15 13:50:00,
2013-09-15 04:00:00,69.4,61.8,29.82,East,98,6.0,10.0,77,0.00,CLR,SCT,0.00,0.0,WeatherDisplay:10.37,2013-09-15 14:00:00,
2013-09-15 04:10:00,69.6,61.7,29.82,ESE,104,3.0,8.0,76,0.00,CLR,SCT,0.00,0.0,WeatherDisplay:10.37,2013-09-15 14:10:00,
2013-09-15 04:20:00,69.6,62.4,29.82,ESE,104,5.0,9.0,78,0.00,CLR,SCT,0.00,0.0,WeatherDisplay:10.37,2013-09-15 14:20:00,
2013-09-15 04:30:00,69.7,62.5,29.82,East,91,6.0,12.0,78,0.00,CLR,SCT,0.00,0.0,WeatherDisplay:10.37,2013-09-15 14:30:00,
2013-09-15 04:40:00,69.9,62.4,29.82,East,84,5.0,12.0,77,0.00,CLR,SCT,0.00,0.0,WeatherDisplay:10.37,2013-09-15 14:40:00,
2013-09-15 04:50:00,70.1,62.9,29.82,ESE,103,2.0,12.0,78,0.00,CLR,SCT,0.00,0.0,WeatherDisplay:10.37,2013-09-15 14:50:00,
2013-09-15 05:00:00,69.9,62.7,29.83,East,96,2.0,9.0,78,0.00,CLR,SCT,0.00,0.0,WeatherDisplay:10.37,2013-09-15 15:00:00,
2013-09-15 05:10:00,69.9,62.4,29.83,ESE,110,5.0,13.0,77,0.00,CLR,SCT,0.00,0.0,WeatherDisplay:10.37,2013-09-15 15:10:00,
2013-09-15 05:20:00,70.3,62.4,29.83,East,93,8.0,15.0,76,0.00,CLR,SCT,0.00,0.0,WeatherDisplay:10.37,2013-09-15 15:20:00,
2013-09-15 05:30:00,70.4,62.5,29.83,East,87,9.0,20.0,76,0.00,CLR,SCT,0.00,0.0,WeatherDisplay:10.37,2013-09-15 15:30:00,
2013-09-15 05:40:00,70.6,62.3,29.83,East,87,9.0,20.0,75,0.00,CLR,SCT,0.00,0.0,WeatherDisplay:10.37,2013-09-15 15:40:00,
2013-09-15 05:50:00,70.5,62.2,29.83,East,96,9.0,20.0,75,0.00,CLR,SCT,0.00,0.0,WeatherDisplay:10.37,2013-09-15 15:50:00,
2013-09-15 06:00:00,70.5,62.2,29.83,East,94,6.0,16.0,75,0.00,CLR,SCT,0.00,0.0,WeatherDisplay:10.37,2013-09-15 16:00:00,
2013-09-15 06:10:00,70.7,61.2,29.84,East,88,8.0,16.0,72,0.00,FEW,SCT,0.00,0.0,WeatherDisplay:10.37,2013-09-15 16:10:00,
2013-09-15 06:20:00,70.8,60.5,29.84,East,85,7.0,15.0,70,0.00,FEW,SCT,0.00,0.1,WeatherDisplay:10.37,2013-09-15 16:20:00,
2013-09-15 06:30:00,70.8,60.2,29.84,East,83,8.0,13.0,69,0.00,FEW,SCT,0.00,0.5,WeatherDisplay:10.37,2013-09-15 16:30:00,
2013-09-15 06:40:00,70.8,59.3,29.85,East,87,9.0,13.0,67,0.00,FEW,SCT,0.00,1.1,WeatherDisplay:10.37,2013-09-15 16:40:00,
2013-09-15 06:50:00,70.8,59.3,29.85,East,88,7.0,14.0,67,0.00,FEW,SCT,0.00,2.7,WeatherDisplay:10.37,2013-09-15 16:50:00,
2013-09-15 07:00:00,71.0,59.1,29.85,East,85,8.0,13.0,66,0.00,FEW,SCT,0.00,31.9,WeatherDisplay:10.37,2013-09-15 17:00:00,
2013-09-15 07:10:00,71.4,59.9,29.86,East,98,5.0,12.0,67,0.00,FEW,SCT,0.00,44.2,WeatherDisplay:10.37,2013-09-15 17:10:00,
2013-09-15 07:20:00,71.7,60.6,29.86,East,96,5.0,10.0,68,0.00,FEW,SCT,0.00,60.1,WeatherDisplay:10.37,2013-09-15 17:20:00,
2013-09-15 07:30:00,72.3,60.3,29.86,ENE,78,5.0,10.0,66,0.00,FEW,SCT,0.00,76.9,WeatherDisplay:10.37,2013-09-15 17:30:00,
2013-09-15 07:40:00,73.0,61.3,29.86,ENE,77,3.0,8.0,67,0.00,FEW,SCT,0.00,95.0,WeatherDisplay:10.37,2013-09-15 17:40:00,
2013-09-15 07:50:00,73.7,61.7,29.87,ENE,76,3.0,8.0,66,0.00,FEW,SCT,0.00,113.3,WeatherDisplay:10.37,2013-09-15 17:50:00,
2013-09-15 08:00:00,75.4,64.9,29.87,SE,129,2.0,8.0,70,0.00,FEW,SCT,0.00,131.6,WeatherDisplay:10.37,2013-09-15 18:00:00,
2013-09-15 08:10:00,76.0,66.3,29.87,SW,218,3.0,6.0,72,0.00,FEW,SCT,0.00,150.8,WeatherDisplay:10.37,2013-09-15 18:10:00,
2013-09-15 08:20:00,76.4,66.3,29.87,SW,231,2.0,6.0,71,0.00,FEW,SCT,0.00,172.3,WeatherDisplay:10.37,2013-09-15 18:20:00,
2013-09-15 08:30:00,77.4,66.4,29.88,SW,232,0.0,4.0,69,0.00,FEW,SCT,0.00,194.8,WeatherDisplay:10.37,2013-09-15 18:30:00,
2013-09-15 08:40:00,78.5,65.3,29.87,South,169,5.0,8.0,64,0.00,FEW,SCT,0.00,216.3,WeatherDisplay:10.37,2013-09-15 18:40:00,
2013-09-15 08:50:00,79.6,66.4,29.88,East,93,2.0,9.0,64,0.00,FEW,SCT,0.00,239.5,WeatherDisplay:10.37,2013-09-15 18:50:00,
2013-09-15 09:00:00,80.5,63.3,29.88,ESE,103,5.0,16.0,56,0.00,FEW,SCT,0.00,262.5,WeatherDisplay:10.37,2013-09-15 19:00:00,
2013-09-15 09:10:00,81.1,63.9,29.88,East,87,8.0,15.0,56,0.00,FEW,SCT,0.00,284.2,WeatherDisplay:10.37,2013-09-15 19:10:00,
2013-09-15 09:20:00,81.4,64.2,29.88,East,92,8.0,22.0,56,0.00,FEW,SCT,0.00,303.9,WeatherDisplay:10.37,2013-09-15 19:20:00,
2013-09-15 09:30:00,81.9,64.1,29.88,East,83,7.0,16.0,55,0.00,FEW,SCT,0.00,325.7,WeatherDisplay:10.37,2013-09-15 19:30:00,
2013-09-15 09:40:00,81.9,64.6,29.88,East,90,7.0,16.0,56,0.00,FEW,SCT,0.00,347.6,WeatherDisplay:10.37,2013-09-15 19:40:00,
2013-09-15 09:50:00,82.7,65.4,29.88,ENE,78,7.0,16.0,56,0.00,FEW,SCT,0.00,374.5,WeatherDisplay:10.37,2013-09-15 19:50:00,
2013-09-15 10:00:00,83.5,66.6,29.87,East,82,8.0,18.0,57,0.00,FEW,SCT,0.00,398.5,WeatherDisplay:10.37,2013-09-15 20:00:00,
2013-09-15 10:10:00,83.3,67.0,29.87,ENE,75,7.0,17.0,58,0.00,FEW,SCT,0.00,431.8,WeatherDisplay:10.37,2013-09-15 20:10:00,
2013-09-15 10:20:00,83.5,66.2,29.87,East,83,10.0,18.0,56,0.00,FEW,SCT,0.00,471.2,WeatherDisplay:10.37,2013-09-15 20:20:00,
2013-09-15 10:30:00,83.8,66.4,29.88,East,91,8.0,18.0,56,0.00,FEW,SCT,0.00,575.3,WeatherDisplay:10.37,2013-09-15 20:30:00,
2013-09-15 10:40:00,84.6,67.2,29.88,ESE,108,9.0,20.0,56,0.00,FEW,SCT,0.00,828.3,WeatherDisplay:10.37,2013-09-15 20:40:00,
2013-09-15 10:50:00,84.3,67.4,29.88,East,90,7.0,17.0,57,0.00,FEW,SCT,0.00,1240.7,WeatherDisplay:10.37,2013-09-15 20:50:00,
2013-09-15 11:00:00,85.0,68.1,29.88,ENE,66,7.0,18.0,57,0.00,FEW,SCT,0.00,1328.3,WeatherDisplay:10.37,2013-09-15 21:00:00,
2013-09-15 11:10:00,85.4,68.4,29.87,East,81,7.0,18.0,57,0.00,FEW,SCT,0.00,1378.5,WeatherDisplay:10.37,2013-09-15 21:10:00,
2013-09-15 11:20:00,84.8,68.9,29.87,ENE,58,7.0,17.0,59,0.00,FEW,SCT,0.00,1413.9,WeatherDisplay:10.37,2013-09-15 21:20:00,
2013-09-15 11:30:00,85.0,67.6,29.87,East,81,8.0,16.0,56,0.00,FEW,SCT,0.00,1399.2,WeatherDisplay:10.37,2013-09-15 21:30:00,
2013-09-15 11:40:00,85.3,69.3,29.86,East,84,3.0,13.0,59,0.00,FEW,SCT,0.00,759.9,WeatherDisplay:10.37,2013-09-15 21:40:00,
2013-09-15 11:50:00,86.0,69.0,29.86,East,81,9.0,15.0,57,0.00,FEW,SCT,0.00,714.0,WeatherDisplay:10.37,2013-09-15 21:50:00,
2013-09-15 12:00:00,85.9,67.3,29.86,East,84,10.0,16.0,54,0.00,FEW,SCT,0.00,700.9,WeatherDisplay:10.37,2013-09-15 22:00:00,
2013-09-15 12:10:00,85.6,67.6,29.86,ENE,77,10.0,16.0,55,0.00,FEW,SCT,0.00,667.4,WeatherDisplay:10.37,2013-09-15 22:10:00,
2013-09-15 12:20:00,85.4,68.0,29.85,ENE,73,9.0,18.0,56,0.00,FEW,SCT,0.00,633.6,WeatherDisplay:10.37,2013-09-15 22:20:00,
2013-09-15 12:30:00,85.1,68.2,29.85,East,79,9.0,18.0,57,0.00,FEW,SCT,0.00,698.8,WeatherDisplay:10.37,2013-09-15 22:30:00,
2013-09-15 12:40:00,85.3,69.4,29.85,ENE,67,12.0,20.0,59,0.00,FEW,SCT,0.00,710.2,WeatherDisplay:10.37,2013-09-15 22:40:00,
2013-09-15 12:50:00,85.5,69.0,29.85,ENE,73,9.0,23.0,58,0.00,FEW,SCT,0.00,707.0,WeatherDisplay:10.37,2013-09-15 22:50:00,
2013-09-15 13:00:00,85.1,68.1,29.85,ENE,76,12.0,20.0,57,0.00,FEW,SCT,0.00,692.2,WeatherDisplay:10.37,2013-09-15 23:00:00,
2013-09-15 13:10:00,85.2,67.7,29.84,East,79,7.0,18.0,56,0.00,FEW,SCT,0.00,692.4,WeatherDisplay:10.37,2013-09-15 23:10:00,
2013-09-15 13:20:00,84.8,67.4,29.84,ENE,78,9.0,17.0,56,0.00,FEW,SCT,0.00,698.6,WeatherDisplay:10.37,2013-09-15 23:20:00,
2013-09-15 13:30:00,84.8,67.9,29.84,ENE,73,10.0,18.0,57,0.00,FEW,SCT,0.00,717.2,WeatherDisplay:10.37,2013-09-15 23:30:00,
2013-09-15 13:40:00,85.3,68.3,29.83,ENE,74,12.0,16.0,57,0.00,FEW,SCT,0.00,722.8,WeatherDisplay:10.37,2013-09-15 23:40:00,
2013-09-15 13:50:00,85.2,68.2,29.83,ENE,77,8.0,15.0,57,0.00,FEW,SCT,0.00,1214.9,WeatherDisplay:10.37,2013-09-15 23:50:00,
2013-09-15 14:00:00,85.4,67.9,29.82,East,79,8.0,16.0,56,0.00,FEW,SCT,0.00,1318.4,WeatherDisplay:10.37,2013-09-16 00:00:00,
2013-09-15 14:10:00,85.1,68.1,29.82,East,79,8.0,18.0,57,0.00,FEW,SCT,0.00,1198.7,WeatherDisplay:10.37,2013-09-16 00:10:00,
2013-09-15 14:20:00,84.7,67.3,29.82,East,87,7.0,16.0,56,0.00,FEW,SCT,0.00,1111.5,WeatherDisplay:10.37,2013-09-16 00:20:00,
2013-09-15 14:30:00,85.0,68.6,29.82,ENE,70,5.0,15.0,58,0.00,FEW,SCT,0.00,1037.5,WeatherDisplay:10.37,2013-09-16 00:30:00,
2013-09-15 14:40:00,85.3,67.8,29.82,ENE,73,10.0,25.0,56,0.00,FEW,SCT,0.00,965.6,WeatherDisplay:10.37,2013-09-16 00:40:00,
2013-09-15 14:50:00,84.6,68.7,29.82,ENE,65,7.0,21.0,59,0.00,FEW,SCT,0.00,685.0,WeatherDisplay:10.37,2013-09-16 00:50:00,
2013-09-15 15:00:00,84.5,68.6,29.82,ENE,68,9.0,20.0,59,0.00,FEW,SCT,0.00,384.6,WeatherDisplay:10.37,2013-09-16 01:00:00,
2013-09-15 15:10:00,83.9,67.5,29.82,ENE,72,12.0,24.0,58,0.00,FEW,SCT,0.00,350.1,WeatherDisplay:10.37,2013-09-16 01:10:00,
2013-09-15 15:20:00,83.2,66.4,29.82,ENE,77,10.0,22.0,57,0.00,FEW,SCT,0.00,319.0,WeatherDisplay:10.37,2013-09-16 01:20:00,
2013-09-15 15:30:00,83.7,66.8,29.82,ENE,72,12.0,17.0,57,0.00,FEW,SCT,0.00,292.1,WeatherDisplay:10.37,2013-09-16 01:30:00,
2013-09-15 15:40:00,82.7,66.9,29.82,East,80,9.0,21.0,59,0.00,FEW,SCT,0.00,267.8,WeatherDisplay:10.37,2013-09-16 01:40:00,
2013-09-15 15:50:00,83.1,67.8,29.82,East,79,8.0,17.0,60,0.00,FEW,SCT,0.00,245.3,WeatherDisplay:10.37,2013-09-16 01:50:00,
2013-09-15 16:00:00,82.1,68.7,29.82,ENE,70,12.0,20.0,64,0.00,FEW,SCT,0.00,221.8,WeatherDisplay:10.37,2013-09-16 02:00:00,
2013-09-15 16:10:00,81.8,68.4,29.82,ENE,69,9.0,18.0,64,0.00,FEW,SCT,0.00,200.1,WeatherDisplay:10.37,2013-09-16 02:10:00,
2013-09-15 16:20:00,81.3,68.0,29.82,ENE,74,10.0,20.0,64,0.00,FEW,SCT,0.00,178.9,WeatherDisplay:10.37,2013-09-16 02:20:00,
2013-09-15 16:30:00,81.4,67.1,29.83,East,80,6.0,20.0,62,0.00,FEW,SCT,0.00,157.7,WeatherDisplay:10.37,2013-09-16 02:30:00,
2013-09-15 16:40:00,80.9,67.1,29.83,ENE,74,3.0,16.0,63,0.00,FEW,SCT,0.00,136.1,WeatherDisplay:10.37,2013-09-16 02:40:00,
2013-09-15 16:50:00,80.6,66.9,29.83,ENE,65,12.0,21.0,63,0.00,FEW,SCT,0.00,116.7,WeatherDisplay:10.37,2013-09-16 02:50:00,
2013-09-15 17:00:00,79.6,67.7,29.84,ENE,73,6.0,16.0,67,0.00,FEW,SCT,0.00,98.4,WeatherDisplay:10.37,2013-09-16 03:00:00,
2013-09-15 17:10:00,78.8,67.3,29.84,ENE,76,8.0,21.0,68,0.00,CLR,SCT,0.00,81.4,WeatherDisplay:10.37,2013-09-16 03:10:00,
2013-09-15 17:20:00,77.9,66.5,29.84,ENE,77,8.0,17.0,68,0.00,CLR,SCT,0.00,62.1,WeatherDisplay:10.37,2013-09-16 03:20:00,
2013-09-15 17:30:00,77.5,65.7,29.84,East,84,8.0,15.0,67,0.00,CLR,SCT,0.00,50.3,WeatherDisplay:10.37,2013-09-16 03:30:00,
2013-09-15 17:40:00,77.5,65.7,29.84,East,80,6.0,17.0,67,0.00,CLR,SCT,0.00,34.2,WeatherDisplay:10.37,2013-09-16 03:40:00,
2013-09-15 17:50:00,76.6,64.8,29.85,East,82,9.0,17.0,67,0.00,CLR,SCT,0.00,24.5,WeatherDisplay:10.37,2013-09-16 03:50:00,
2013-09-15 18:00:00,76.2,64.0,29.86,East,85,6.0,12.0,66,0.00,CLR,SCT,0.00,2.4,WeatherDisplay:10.37,2013-09-16 04:00:00,
2013-09-15 18:10:00,75.7,63.5,29.86,East,83,7.0,12.0,66,0.00,FEW,SCT,0.00,0.9,WeatherDisplay:10.37,2013-09-16 04:10:00,
2013-09-15 18:20:00,74.9,63.7,29.86,East,83,7.0,12.0,68,0.00,FEW,SCT,0.00,0.2,WeatherDisplay:10.37,2013-09-16 04:20:00,
2013-09-15 18:30:00,74.1,63.7,29.87,East,82,3.0,12.0,70,0.00,FEW,SCT,0.00,0.0,WeatherDisplay:10.37,2013-09-16 04:30:00,
2013-09-15 18:40:00,73.4,64.6,29.87,ENE,72,6.0,13.0,74,0.00,FEW,SCT,0.00,0.0,WeatherDisplay:10.37,2013-09-16 04:40:00,
2013-09-15 18:50:00,72.7,65.4,29.87,ENE,74,8.0,15.0,78,0.00,FEW,SCT,0.00,0.0,WeatherDisplay:10.37,2013-09-16 04:50:00,
2013-09-15 19:00:00,72.1,65.3,29.87,ENE,76,8.0,16.0,79,0.00,FEW,SCT,0.00,0.0,WeatherDisplay:10.37,2013-09-16 05:00:00,
2013-09-15 19:10:00,71.8,64.6,29.88,East,82,8.0,15.0,78,0.00,FEW,SCT,0.00,0.0,WeatherDisplay:10.37,2013-09-16 05:10:00,
2013-09-15 19:20:00,71.7,64.1,29.88,East,81,3.0,14.0,77,0.00,FEW,SCT,0.00,0.0,WeatherDisplay:10.37,2013-09-16 05:20:00,
2013-09-15 19:30:00,71.6,63.6,29.89,East,80,8.0,13.0,76,0.00,FEW,SCT,0.00,0.0,WeatherDisplay:10.37,2013-09-16 05:30:00,
2013-09-15 19:40:00,71.5,62.0,29.88,East,86,8.0,16.0,72,0.00,FEW,SCT,0.00,0.0,WeatherDisplay:10.37,2013-09-16 05:40:00,
2013-09-15 19:50:00,71.7,61.8,29.89,East,86,5.0,16.0,71,0.00,FEW,SCT,0.00,0.0,WeatherDisplay:10.37,2013-09-16 05:50:00,
2013-09-15 20:00:00,71.6,61.3,29.89,East,82,6.0,15.0,70,0.00,FEW,SCT,0.00,0.0,WeatherDisplay:10.37,2013-09-16 06:00:00,
2013-09-15 20:10:00,71.5,61.6,29.89,ENE,76,6.0,12.0,71,0.00,CLR,SCT,0.00,0.0,WeatherDisplay:10.37,2013-09-16 06:10:00,
2013-09-15 20:20:00,71.3,61.8,29.89,ENE,71,3.0,14.0,72,0.00,CLR,SCT,0.00,0.0,WeatherDisplay:10.37,2013-09-16 06:20:00,
2013-09-15 20:30:00,71.2,62.1,29.89,ENE,73,6.0,25.0,73,0.00,CLR,SCT,0.00,0.0,WeatherDisplay:10.37,2013-09-16 06:30:00,
2013-09-15 20:40:00,71.2,62.5,29.89,ENE,73,7.0,26.0,74,0.00,CLR,SCT,0.00,0.0,WeatherDisplay:10.37,2013-09-16 06:40:00,
2013-09-15 20:50:00,71.2,62.9,29.89,East,89,7.0,12.0,75,0.00,CLR,SCT,0.00,0.0,WeatherDisplay:10.37,2013-09-16 06:50:00,
2013-09-15 21:00:00,71.2,63.6,29.90,East,89,7.0,13.0,77,0.00,CLR,SCT,0.00,0.0,WeatherDisplay:10.37,2013-09-16 07:00:00,
2013-09-15 21:10:00,71.3,64.8,29.90,ENE,75,9.0,17.0,80,0.00,CLR,SCT,0.00,0.0,WeatherDisplay:10.37,2013-09-16 07:10:00,
2013-09-15 21:20:00,71.0,64.9,29.90,East,86,6.0,18.0,81,0.00,CLR,SCT,0.00,0.0,WeatherDisplay:10.37,2013-09-16 07:20:00,
2013-09-15 21:30:00,70.8,64.3,29.90,East,95,7.0,14.0,80,0.00,CLR,SCT,0.00,0.0,WeatherDisplay:10.37,2013-09-16 07:30:00,
2013-09-15 21:40:00,70.7,63.9,29.90,East,88,8.0,16.0,79,0.00,CLR,SCT,0.00,0.0,WeatherDisplay:10.37,2013-09-16 07:40:00,
2013-09-15 21:50:00,70.8,63.6,29.90,ENE,78,7.0,14.0,78,0.00,CLR,SCT,0.00,0.0,WeatherDisplay:10.37,2013-09-16 07:50:00,
2013-09-15 22:00:00,70.6,63.0,29.90,East,87,2.0,12.0,77,0.00,CLR,SCT,0.00,0.0,WeatherDisplay:10.37,2013-09-16 08:00:00,
2013-09-15 22:10:00,70.7,62.0,29.90,East,84,7.0,12.0,74,0.00,CLR,SCT,0.00,0.0,WeatherDisplay:10.37,2013-09-16 08:10:00,
2013-09-15 22:20:00,70.8,62.5,29.90,East,81,6.0,13.0,75,0.00,CLR,SCT,0.00,0.0,WeatherDisplay:10.37,2013-09-16 08:20:00,
2013-09-15 22:30:00,70.8,62.5,29.90,East,82,9.0,18.0,75,0.00,CLR,SCT,0.00,0.0,WeatherDisplay:10.37,2013-09-16 08:30:00,
2013-09-15 22:40:00,71.0,63.1,29.90,East,84,8.0,18.0,76,0.00,CLR,SCT,0.00,0.0,WeatherDisplay:10.37,2013-09-16 08:40:00,
2013-09-15 22:50:00,70.9,63.3,29.90,East,86,10.0,20.0,77,0.00,CLR,SCT,0.00,0.0,WeatherDisplay:10.37,2013-09-16 08:50:00,
2013-09-15 23:00:00,70.8,62.9,29.90,East,87,13.0,24.0,76,0.00,CLR,SCT,0.00,0.0,WeatherDisplay:10.37,2013-09-16 09:00:00,
2013-09-15 23:10:00,70.6,62.7,29.90,East,79,12.0,20.0,76,0.00,CLR,SCT,0.00,0.0,WeatherDisplay:10.37,2013-09-16 09:10:00,
2013-09-15 23:20:00,70.6,63.0,29.90,East,86,13.0,20.0,77,0.00,CLR,SCT,0.00,0.0,WeatherDisplay:10.37,2013-09-16 09:20:00,
2013-09-15 23:30:00,70.8,63.2,29.90,East,81,10.0,20.0,77,0.00,CLR,SCT,0.00,0.0,WeatherDisplay:10.37,2013-09-16 09:30:00,
2013-09-15 23:40:00,70.9,63.3,29.90,East,81,6.0,18.0,77,0.00,CLR,SCT,0.00,0.0,WeatherDisplay:10.37,2013-09-16 09:40:00,
2013-09-15 23:50:00,70.9,63.0,29.90,East,83,9.0,15.0,76,0.00,CLR,SCT,0.00,0.0,WeatherDisplay:10.37,2013-09-16 09:50:00,